sensor_id;sensor_type;location;lat;lon;timestamp;P1;durP1;ratioP1;P2;durP2;ratioP2
15153;SDS011;7677;41.896;25.004;2022-12-20T00:01:05;7.47;;;4.23;;
15153;SDS011;7677;41.896;25.004;2022-12-20T00:03:35;7.67;;;3.90;;
15153;SDS011;7677;41.896;25.004;2022-12-20T00:06:05;7.50;;;4.10;;
15153;SDS011;7677;41.896;25.004;2022-12-20T00:08:32;6.73;;;4.30;;
15153;SDS011;7677;41.896;25.004;2022-12-20T00:11:01;6.70;;;4.23;;
15153;SDS011;7677;41.896;25.004;2022-12-20T00:13:29;6.70;;;3.67;;
15153;SDS011;7677;41.896;25.004;2022-12-20T00:16:05;4.67;;;3.67;;
15153;SDS011;7677;41.896;25.004;2022-12-20T00:18:35;4.83;;;3.67;;
15153;SDS011;7677;41.896;25.004;2022-12-20T00:21:03;7.60;;;4.63;;
15153;SDS011;7677;41.896;25.004;2022-12-20T00:23:32;4.53;;;3.80;;
15153;SDS011;7677;41.896;25.004;2022-12-20T00:26:00;5.27;;;3.43;;
15153;SDS011;7677;41.896;25.004;2022-12-20T00:28:28;4.93;;;4.37;;
15153;SDS011;7677;41.896;25.004;2022-12-20T00:30:55;7.67;;;4.50;;
15153;SDS011;7677;41.896;25.004;2022-12-20T00:33:23;4.33;;;3.33;;
15153;SDS011;7677;41.896;25.004;2022-12-20T00:35:52;5.53;;;3.23;;
15153;SDS011;7677;41.896;25.004;2022-12-20T00:38:20;4.47;;;4.00;;
15153;SDS011;7677;41.896;25.004;2022-12-20T00:40:57;5.00;;;3.13;;
15153;SDS011;7677;41.896;25.004;2022-12-20T00:43:26;6.13;;;4.40;;
15153;SDS011;7677;41.896;25.004;2022-12-20T00:45:55;5.73;;;3.67;;
15153;SDS011;7677;41.896;25.004;2022-12-20T00:48:22;6.03;;;4.33;;
15153;SDS011;7677;41.896;25.004;2022-12-20T00:50:50;4.73;;;4.33;;
15153;SDS011;7677;41.896;25.004;2022-12-20T00:53:18;3.47;;;3.17;;
15153;SDS011;7677;41.896;25.004;2022-12-20T00:55:46;5.30;;;3.97;;
15153;SDS011;7677;41.896;25.004;2022-12-20T00:58:13;13.63;;;4.00;;
15153;SDS011;7677;41.896;25.004;2022-12-20T01:00:40;5.10;;;4.50;;
15153;SDS011;7677;41.896;25.004;2022-12-20T01:03:08;7.93;;;4.90;;
15153;SDS011;7677;41.896;25.004;2022-12-20T01:05:35;7.03;;;4.10;;
15153;SDS011;7677;41.896;25.004;2022-12-20T01:08:05;6.47;;;4.17;;
15153;SDS011;7677;41.896;25.004;2022-12-20T01:10:33;2.93;;;2.73;;
15153;SDS011;7677;41.896;25.004;2022-12-20T01:13:00;3.93;;;3.47;;
15153;SDS011;7677;41.896;25.004;2022-12-20T01:15:27;10.10;;;4.37;;
15153;SDS011;7677;41.896;25.004;2022-12-20T01:17:54;6.77;;;4.43;;
15153;SDS011;7677;41.896;25.004;2022-12-20T01:20:22;7.90;;;3.87;;
15153;SDS011;7677;41.896;25.004;2022-12-20T01:22:49;4.97;;;4.47;;
15153;SDS011;7677;41.896;25.004;2022-12-20T01:25:18;6.60;;;4.00;;
15153;SDS011;7677;41.896;25.004;2022-12-20T01:27:46;5.00;;;3.37;;
15153;SDS011;7677;41.896;25.004;2022-12-20T01:30:14;7.07;;;4.17;;
15153;SDS011;7677;41.896;25.004;2022-12-20T01:32:41;5.57;;;4.33;;
15153;SDS011;7677;41.896;25.004;2022-12-20T01:35:08;7.97;;;4.30;;
15153;SDS011;7677;41.896;25.004;2022-12-20T01:37:36;4.23;;;3.53;;
15153;SDS011;7677;41.896;25.004;2022-12-20T01:40:03;4.63;;;3.53;;
15153;SDS011;7677;41.896;25.004;2022-12-20T01:42:35;4.97;;;3.13;;
15153;SDS011;7677;41.896;25.004;2022-12-20T01:45:03;8.33;;;4.83;;
15153;SDS011;7677;41.896;25.004;2022-12-20T01:47:34;9.57;;;4.93;;
15153;SDS011;7677;41.896;25.004;2022-12-20T01:50:03;6.10;;;3.33;;
15153;SDS011;7677;41.896;25.004;2022-12-20T01:52:32;6.90;;;4.63;;
15153;SDS011;7677;41.896;25.004;2022-12-20T01:55:03;7.53;;;4.60;;
15153;SDS011;7677;41.896;25.004;2022-12-20T01:57:34;9.33;;;4.13;;
15153;SDS011;7677;41.896;25.004;2022-12-20T02:00:06;5.20;;;3.97;;
15153;SDS011;7677;41.896;25.004;2022-12-20T02:02:36;4.30;;;3.00;;
15153;SDS011;7677;41.896;25.004;2022-12-20T02:05:03;6.20;;;4.00;;
15153;SDS011;7677;41.896;25.004;2022-12-20T02:07:32;4.20;;;2.60;;
15153;SDS011;7677;41.896;25.004;2022-12-20T02:10:00;5.13;;;4.17;;
15153;SDS011;7677;41.896;25.004;2022-12-20T02:12:29;9.03;;;4.57;;
15153;SDS011;7677;41.896;25.004;2022-12-20T02:15:04;7.47;;;3.13;;
15153;SDS011;7677;41.896;25.004;2022-12-20T02:17:41;3.47;;;2.77;;
15153;SDS011;7677;41.896;25.004;2022-12-20T05:44:22;10.77;;;3.17;;
15153;SDS011;7677;41.896;25.004;2022-12-20T09:23:37;6.90;;;4.07;;
15153;SDS011;7677;41.896;25.004;2022-12-20T09:26:06;8.00;;;4.40;;
15153;SDS011;7677;41.896;25.004;2022-12-20T09:28:34;8.27;;;4.80;;
15153;SDS011;7677;41.896;25.004;2022-12-20T09:31:02;8.10;;;5.30;;
15153;SDS011;7677;41.896;25.004;2022-12-20T09:33:30;8.13;;;4.70;;
15153;SDS011;7677;41.896;25.004;2022-12-20T09:35:59;10.03;;;5.30;;
15153;SDS011;7677;41.896;25.004;2022-12-20T09:38:27;7.47;;;5.20;;
15153;SDS011;7677;41.896;25.004;2022-12-20T09:40:58;7.90;;;5.37;;
15153;SDS011;7677;41.896;25.004;2022-12-20T09:43:26;6.00;;;4.30;;
15153;SDS011;7677;41.896;25.004;2022-12-20T09:45:55;8.57;;;5.20;;
15153;SDS011;7677;41.896;25.004;2022-12-20T09:48:24;9.27;;;5.33;;
15153;SDS011;7677;41.896;25.004;2022-12-20T09:50:55;7.63;;;5.90;;
15153;SDS011;7677;41.896;25.004;2022-12-20T09:53:31;7.87;;;4.30;;
15153;SDS011;7677;41.896;25.004;2022-12-20T09:56:07;6.73;;;4.60;;
15153;SDS011;7677;41.896;25.004;2022-12-20T09:58:45;7.63;;;4.67;;
15153;SDS011;7677;41.896;25.004;2022-12-20T10:01:27;9.33;;;5.17;;
15153;SDS011;7677;41.896;25.004;2022-12-20T10:03:56;8.53;;;4.20;;
15153;SDS011;7677;41.896;25.004;2022-12-20T10:06:28;6.13;;;4.63;;
15153;SDS011;7677;41.896;25.004;2022-12-20T10:09:03;11.23;;;5.83;;
15153;SDS011;7677;41.896;25.004;2022-12-20T10:11:45;8.47;;;4.83;;
15153;SDS011;7677;41.896;25.004;2022-12-20T10:14:27;10.27;;;6.27;;
15153;SDS011;7677;41.896;25.004;2022-12-20T10:17:01;9.73;;;5.43;;
15153;SDS011;7677;41.896;25.004;2022-12-20T10:19:38;11.33;;;5.50;;
15153;SDS011;7677;41.896;25.004;2022-12-20T10:22:16;8.47;;;4.93;;
15153;SDS011;7677;41.896;25.004;2022-12-20T10:24:48;8.00;;;5.30;;
15153;SDS011;7677;41.896;25.004;2022-12-20T10:27:20;9.00;;;5.43;;
15153;SDS011;7677;41.896;25.004;2022-12-20T10:29:48;10.90;;;4.73;;
15153;SDS011;7677;41.896;25.004;2022-12-20T10:32:19;8.57;;;4.57;;
15153;SDS011;7677;41.896;25.004;2022-12-20T10:34:50;9.50;;;5.80;;
15153;SDS011;7677;41.896;25.004;2022-12-20T10:37:18;9.73;;;6.23;;
15153;SDS011;7677;41.896;25.004;2022-12-20T10:39:46;7.37;;;5.23;;
15153;SDS011;7677;41.896;25.004;2022-12-20T10:42:34;9.00;;;5.23;;
15153;SDS011;7677;41.896;25.004;2022-12-20T10:45:03;11.27;;;6.60;;
15153;SDS011;7677;41.896;25.004;2022-12-20T10:47:45;12.53;;;5.67;;
15153;SDS011;7677;41.896;25.004;2022-12-20T10:50:13;5.83;;;5.03;;
15153;SDS011;7677;41.896;25.004;2022-12-20T10:52:43;11.67;;;5.63;;
15153;SDS011;7677;41.896;25.004;2022-12-20T10:58:02;9.67;;;7.07;;
15153;SDS011;7677;41.896;25.004;2022-12-20T11:00:31;11.90;;;6.90;;
15153;SDS011;7677;41.896;25.004;2022-12-20T11:03:03;13.30;;;6.73;;
15153;SDS011;7677;41.896;25.004;2022-12-20T11:05:36;12.23;;;5.97;;
15153;SDS011;7677;41.896;25.004;2022-12-20T11:08:06;7.57;;;5.90;;
15153;SDS011;7677;41.896;25.004;2022-12-20T11:10:41;7.83;;;5.67;;
15153;SDS011;7677;41.896;25.004;2022-12-20T11:13:20;9.47;;;5.30;;
15153;SDS011;7677;41.896;25.004;2022-12-20T11:15:50;13.90;;;6.80;;
15153;SDS011;7677;41.896;25.004;2022-12-20T11:18:24;8.93;;;6.63;;
15153;SDS011;7677;41.896;25.004;2022-12-20T11:20:56;9.43;;;5.93;;
15153;SDS011;7677;41.896;25.004;2022-12-20T11:23:31;12.80;;;7.63;;
15153;SDS011;7677;41.896;25.004;2022-12-20T11:26:06;16.47;;;7.27;;
15153;SDS011;7677;41.896;25.004;2022-12-20T11:28:47;12.13;;;7.00;;
15153;SDS011;7677;41.896;25.004;2022-12-20T11:31:25;18.60;;;9.67;;
15153;SDS011;7677;41.896;25.004;2022-12-20T11:33:57;16.17;;;9.43;;
15153;SDS011;7677;41.896;25.004;2022-12-20T11:36:31;11.70;;;6.10;;
15153;SDS011;7677;41.896;25.004;2022-12-20T11:39:08;14.67;;;8.47;;
15153;SDS011;7677;41.896;25.004;2022-12-20T11:41:43;12.50;;;8.03;;
15153;SDS011;7677;41.896;25.004;2022-12-20T11:44:18;13.17;;;8.77;;
15153;SDS011;7677;41.896;25.004;2022-12-20T11:46:54;11.90;;;8.07;;
15153;SDS011;7677;41.896;25.004;2022-12-20T11:49:42;18.63;;;8.13;;
15153;SDS011;7677;41.896;25.004;2022-12-20T11:52:20;22.40;;;11.00;;
15153;SDS011;7677;41.896;25.004;2022-12-20T11:54:55;12.90;;;8.80;;
15153;SDS011;7677;41.896;25.004;2022-12-20T11:57:29;16.83;;;10.33;;
15153;SDS011;7677;41.896;25.004;2022-12-20T12:00:02;15.30;;;9.73;;
15153;SDS011;7677;41.896;25.004;2022-12-20T12:02:32;13.83;;;9.17;;
15153;SDS011;7677;41.896;25.004;2022-12-20T12:05:04;12.73;;;9.50;;
15153;SDS011;7677;41.896;25.004;2022-12-20T12:07:33;19.37;;;10.10;;
15153;SDS011;7677;41.896;25.004;2022-12-20T12:10:03;12.30;;;7.33;;
15153;SDS011;7677;41.896;25.004;2022-12-20T12:12:36;11.73;;;7.53;;
15153;SDS011;7677;41.896;25.004;2022-12-20T12:15:11;11.50;;;7.33;;
15153;SDS011;7677;41.896;25.004;2022-12-20T12:17:45;15.03;;;7.93;;
15153;SDS011;7677;41.896;25.004;2022-12-20T12:20:17;12.93;;;8.40;;
15153;SDS011;7677;41.896;25.004;2022-12-20T12:22:48;15.70;;;8.60;;
15153;SDS011;7677;41.896;25.004;2022-12-20T12:25:19;13.73;;;9.37;;
15153;SDS011;7677;41.896;25.004;2022-12-20T12:27:47;13.40;;;7.70;;
15153;SDS011;7677;41.896;25.004;2022-12-20T12:30:15;11.73;;;7.63;;
15153;SDS011;7677;41.896;25.004;2022-12-20T12:32:44;11.43;;;7.17;;
15153;SDS011;7677;41.896;25.004;2022-12-20T12:35:22;14.00;;;7.17;;
15153;SDS011;7677;41.896;25.004;2022-12-20T12:38:21;14.57;;;7.97;;
15153;SDS011;7677;41.896;25.004;2022-12-20T12:41:05;22.80;;;11.70;;
15153;SDS011;7677;41.896;25.004;2022-12-20T12:43:50;14.97;;;7.73;;
15153;SDS011;7677;41.896;25.004;2022-12-20T12:46:23;9.30;;;6.73;;
15153;SDS011;7677;41.896;25.004;2022-12-20T12:48:54;10.50;;;7.37;;
15153;SDS011;7677;41.896;25.004;2022-12-20T12:51:25;13.63;;;6.30;;
15153;SDS011;7677;41.896;25.004;2022-12-20T12:54:01;15.37;;;8.77;;
15153;SDS011;7677;41.896;25.004;2022-12-20T12:56:30;13.47;;;8.13;;
15153;SDS011;7677;41.896;25.004;2022-12-20T12:59:22;9.70;;;6.93;;
15153;SDS011;7677;41.896;25.004;2022-12-20T13:05:29;10.70;;;5.90;;
15153;SDS011;7677;41.896;25.004;2022-12-20T13:07:57;13.87;;;6.80;;
15153;SDS011;7677;41.896;25.004;2022-12-20T13:13:25;17.10;;;8.77;;
15153;SDS011;7677;41.896;25.004;2022-12-20T13:19:03;13.37;;;7.43;;
15153;SDS011;7677;41.896;25.004;2022-12-20T13:21:42;14.20;;;7.93;;
15153;SDS011;7677;41.896;25.004;2022-12-20T13:27:15;11.77;;;7.07;;
15153;SDS011;7677;41.896;25.004;2022-12-20T13:29:51;13.57;;;7.17;;
15153;SDS011;7677;41.896;25.004;2022-12-20T13:35:29;10.37;;;6.07;;
15153;SDS011;7677;41.896;25.004;2022-12-20T13:37:58;10.60;;;7.03;;
15153;SDS011;7677;41.896;25.004;2022-12-20T13:40:31;11.47;;;6.87;;
15153;SDS011;7677;41.896;25.004;2022-12-20T13:43:01;9.23;;;5.53;;
15153;SDS011;7677;41.896;25.004;2022-12-20T13:45:34;10.60;;;5.90;;
15153;SDS011;7677;41.896;25.004;2022-12-20T13:48:02;11.47;;;5.93;;
15153;SDS011;7677;41.896;25.004;2022-12-20T13:50:33;11.60;;;6.33;;
15153;SDS011;7677;41.896;25.004;2022-12-20T13:53:03;10.93;;;6.10;;
15153;SDS011;7677;41.896;25.004;2022-12-20T13:55:32;10.43;;;6.03;;
15153;SDS011;7677;41.896;25.004;2022-12-20T13:58:04;9.47;;;5.40;;
15153;SDS011;7677;41.896;25.004;2022-12-20T14:00:35;11.20;;;5.80;;
15153;SDS011;7677;41.896;25.004;2022-12-20T14:03:03;9.20;;;5.80;;
15153;SDS011;7677;41.896;25.004;2022-12-20T14:05:31;9.70;;;6.20;;
15153;SDS011;7677;41.896;25.004;2022-12-20T14:08:02;10.37;;;6.03;;
15153;SDS011;7677;41.896;25.004;2022-12-20T14:10:31;10.40;;;6.13;;
15153;SDS011;7677;41.896;25.004;2022-12-20T14:12:59;8.73;;;6.30;;
15153;SDS011;7677;41.896;25.004;2022-12-20T14:15:27;12.30;;;6.70;;
15153;SDS011;7677;41.896;25.004;2022-12-20T14:17:56;8.27;;;5.80;;
15153;SDS011;7677;41.896;25.004;2022-12-20T14:20:27;13.37;;;7.63;;
15153;SDS011;7677;41.896;25.004;2022-12-20T14:22:58;13.90;;;7.00;;
15153;SDS011;7677;41.896;25.004;2022-12-20T14:25:29;11.97;;;6.67;;
15153;SDS011;7677;41.896;25.004;2022-12-20T14:28:00;12.53;;;6.70;;
15153;SDS011;7677;41.896;25.004;2022-12-20T14:30:29;10.50;;;6.73;;
15153;SDS011;7677;41.896;25.004;2022-12-20T14:32:58;10.47;;;6.07;;
15153;SDS011;7677;41.896;25.004;2022-12-20T14:35:26;10.10;;;5.80;;
15153;SDS011;7677;41.896;25.004;2022-12-20T14:37:56;8.97;;;6.53;;
15153;SDS011;7677;41.896;25.004;2022-12-20T14:40:25;9.97;;;6.20;;
15153;SDS011;7677;41.896;25.004;2022-12-20T14:42:52;12.10;;;6.43;;
15153;SDS011;7677;41.896;25.004;2022-12-20T14:45:22;12.60;;;6.73;;
15153;SDS011;7677;41.896;25.004;2022-12-20T14:47:55;20.23;;;6.63;;
15153;SDS011;7677;41.896;25.004;2022-12-20T14:50:26;10.00;;;6.17;;
15153;SDS011;7677;41.896;25.004;2022-12-20T14:52:59;10.53;;;6.83;;
15153;SDS011;7677;41.896;25.004;2022-12-20T14:55:30;11.57;;;6.73;;
15153;SDS011;7677;41.896;25.004;2022-12-20T14:58:00;5.87;;;4.93;;
15153;SDS011;7677;41.896;25.004;2022-12-20T15:00:32;11.23;;;6.23;;
15153;SDS011;7677;41.896;25.004;2022-12-20T15:03:02;8.13;;;6.00;;
15153;SDS011;7677;41.896;25.004;2022-12-20T15:08:22;13.17;;;6.43;;
15153;SDS011;7677;41.896;25.004;2022-12-20T15:10:58;12.93;;;6.80;;
15153;SDS011;7677;41.896;25.004;2022-12-20T15:13:29;8.13;;;5.53;;
15153;SDS011;7677;41.896;25.004;2022-12-20T15:15:58;13.10;;;7.13;;
15153;SDS011;7677;41.896;25.004;2022-12-20T15:18:26;12.37;;;5.87;;
15153;SDS011;7677;41.896;25.004;2022-12-20T15:20:57;8.30;;;5.00;;
15153;SDS011;7677;41.896;25.004;2022-12-20T15:23:28;8.73;;;5.90;;
15153;SDS011;7677;41.896;25.004;2022-12-20T15:25:56;7.77;;;5.47;;
15153;SDS011;7677;41.896;25.004;2022-12-20T15:28:24;11.20;;;6.23;;
15153;SDS011;7677;41.896;25.004;2022-12-20T15:30:52;9.07;;;4.87;;
15153;SDS011;7677;41.896;25.004;2022-12-20T15:33:20;5.50;;;4.10;;
15153;SDS011;7677;41.896;25.004;2022-12-20T15:35:49;6.70;;;5.67;;
15153;SDS011;7677;41.896;25.004;2022-12-20T15:38:18;8.83;;;5.90;;
15153;SDS011;7677;41.896;25.004;2022-12-20T15:40:49;10.03;;;6.30;;
15153;SDS011;7677;41.896;25.004;2022-12-20T15:43:19;8.63;;;6.33;;
15153;SDS011;7677;41.896;25.004;2022-12-20T15:45:49;7.47;;;4.93;;
15153;SDS011;7677;41.896;25.004;2022-12-20T15:48:19;9.80;;;5.57;;
15153;SDS011;7677;41.896;25.004;2022-12-20T15:50:48;9.47;;;5.97;;
15153;SDS011;7677;41.896;25.004;2022-12-20T15:53:17;9.30;;;5.93;;
15153;SDS011;7677;41.896;25.004;2022-12-20T15:55:53;9.90;;;5.70;;
15153;SDS011;7677;41.896;25.004;2022-12-20T15:58:22;11.17;;;6.27;;
15153;SDS011;7677;41.896;25.004;2022-12-20T16:00:50;12.67;;;7.23;;
15153;SDS011;7677;41.896;25.004;2022-12-20T16:03:20;9.13;;;6.17;;
15153;SDS011;7677;41.896;25.004;2022-12-20T16:05:49;9.13;;;5.53;;
15153;SDS011;7677;41.896;25.004;2022-12-20T16:08:16;9.33;;;5.53;;
15153;SDS011;7677;41.896;25.004;2022-12-20T16:10:44;9.20;;;4.93;;
15153;SDS011;7677;41.896;25.004;2022-12-20T16:13:15;9.20;;;6.13;;
15153;SDS011;7677;41.896;25.004;2022-12-20T16:15:43;9.67;;;5.00;;
15153;SDS011;7677;41.896;25.004;2022-12-20T16:18:10;8.07;;;5.30;;
15153;SDS011;7677;41.896;25.004;2022-12-20T16:20:37;6.83;;;4.67;;
15153;SDS011;7677;41.896;25.004;2022-12-20T16:23:05;7.27;;;5.17;;
15153;SDS011;7677;41.896;25.004;2022-12-20T16:25:35;10.67;;;5.37;;
15153;SDS011;7677;41.896;25.004;2022-12-20T16:28:02;7.17;;;5.13;;
15153;SDS011;7677;41.896;25.004;2022-12-20T16:30:31;6.60;;;4.87;;
15153;SDS011;7677;41.896;25.004;2022-12-20T16:32:59;10.77;;;5.77;;
15153;SDS011;7677;41.896;25.004;2022-12-20T16:35:27;7.43;;;4.83;;
15153;SDS011;7677;41.896;25.004;2022-12-20T16:37:56;11.73;;;5.87;;
15153;SDS011;7677;41.896;25.004;2022-12-20T16:40:24;6.80;;;4.97;;
15153;SDS011;7677;41.896;25.004;2022-12-20T16:42:52;10.67;;;6.33;;
15153;SDS011;7677;41.896;25.004;2022-12-20T16:45:20;9.13;;;5.63;;
15153;SDS011;7677;41.896;25.004;2022-12-20T16:47:50;14.57;;;6.13;;
15153;SDS011;7677;41.896;25.004;2022-12-20T16:50:18;10.20;;;7.73;;
15153;SDS011;7677;41.896;25.004;2022-12-20T16:52:47;12.43;;;6.37;;
15153;SDS011;7677;41.896;25.004;2022-12-20T16:55:17;6.17;;;5.03;;
15153;SDS011;7677;41.896;25.004;2022-12-20T16:57:46;5.97;;;4.63;;
15153;SDS011;7677;41.896;25.004;2022-12-20T17:00:17;7.87;;;4.80;;
15153;SDS011;7677;41.896;25.004;2022-12-20T17:02:47;9.83;;;5.37;;
15153;SDS011;7677;41.896;25.004;2022-12-20T17:05:24;9.57;;;5.43;;
15153;SDS011;7677;41.896;25.004;2022-12-20T17:07:53;8.47;;;4.47;;
15153;SDS011;7677;41.896;25.004;2022-12-20T17:10:21;8.80;;;5.30;;
15153;SDS011;7677;41.896;25.004;2022-12-20T17:12:49;7.87;;;4.60;;
15153;SDS011;7677;41.896;25.004;2022-12-20T17:15:18;10.43;;;6.93;;
15153;SDS011;7677;41.896;25.004;2022-12-20T17:17:47;8.83;;;6.07;;
15153;SDS011;7677;41.896;25.004;2022-12-20T17:20:16;8.70;;;4.97;;
15153;SDS011;7677;41.896;25.004;2022-12-20T17:22:48;8.57;;;5.50;;
15153;SDS011;7677;41.896;25.004;2022-12-20T17:25:18;11.17;;;5.70;;
15153;SDS011;7677;41.896;25.004;2022-12-20T17:27:48;8.57;;;4.33;;
15153;SDS011;7677;41.896;25.004;2022-12-20T17:30:16;7.63;;;4.80;;
15153;SDS011;7677;41.896;25.004;2022-12-20T17:32:44;13.53;;;6.20;;
15153;SDS011;7677;41.896;25.004;2022-12-20T17:35:19;11.00;;;5.50;;
15153;SDS011;7677;41.896;25.004;2022-12-20T17:37:52;8.80;;;5.50;;
15153;SDS011;7677;41.896;25.004;2022-12-20T17:40:22;11.17;;;6.43;;
15153;SDS011;7677;41.896;25.004;2022-12-20T17:42:50;12.03;;;6.53;;
15153;SDS011;7677;41.896;25.004;2022-12-20T17:45:24;11.10;;;6.67;;
15153;SDS011;7677;41.896;25.004;2022-12-20T17:47:54;6.80;;;5.53;;
15153;SDS011;7677;41.896;25.004;2022-12-20T17:50:22;10.60;;;6.37;;
15153;SDS011;7677;41.896;25.004;2022-12-20T17:52:50;13.60;;;7.47;;
15153;SDS011;7677;41.896;25.004;2022-12-20T17:55:20;9.87;;;5.27;;
15153;SDS011;7677;41.896;25.004;2022-12-20T17:57:50;6.90;;;4.73;;
15153;SDS011;7677;41.896;25.004;2022-12-20T18:00:20;8.23;;;5.30;;
15153;SDS011;7677;41.896;25.004;2022-12-20T18:02:50;9.23;;;5.40;;
15153;SDS011;7677;41.896;25.004;2022-12-20T18:05:18;7.07;;;5.00;;
15153;SDS011;7677;41.896;25.004;2022-12-20T18:07:49;6.40;;;4.57;;
15153;SDS011;7677;41.896;25.004;2022-12-20T18:10:19;8.00;;;4.20;;
15153;SDS011;7677;41.896;25.004;2022-12-20T18:12:46;4.50;;;3.80;;
15153;SDS011;7677;41.896;25.004;2022-12-20T18:15:14;5.23;;;4.20;;
15153;SDS011;7677;41.896;25.004;2022-12-20T18:17:43;9.87;;;5.83;;
15153;SDS011;7677;41.896;25.004;2022-12-20T18:20:11;6.37;;;4.13;;
15153;SDS011;7677;41.896;25.004;2022-12-20T18:22:39;7.23;;;5.27;;
15153;SDS011;7677;41.896;25.004;2022-12-20T18:25:06;7.93;;;5.40;;
15153;SDS011;7677;41.896;25.004;2022-12-20T18:27:39;6.53;;;4.63;;
15153;SDS011;7677;41.896;25.004;2022-12-20T18:30:08;5.57;;;3.93;;
15153;SDS011;7677;41.896;25.004;2022-12-20T18:32:37;6.83;;;5.03;;
15153;SDS011;7677;41.896;25.004;2022-12-20T18:35:05;5.63;;;4.93;;
15153;SDS011;7677;41.896;25.004;2022-12-20T18:37:33;5.43;;;4.93;;
15153;SDS011;7677;41.896;25.004;2022-12-20T18:40:00;8.20;;;4.97;;
15153;SDS011;7677;41.896;25.004;2022-12-20T18:42:28;5.30;;;4.07;;
15153;SDS011;7677;41.896;25.004;2022-12-20T18:44:57;5.33;;;3.80;;
15153;SDS011;7677;41.896;25.004;2022-12-20T18:47:24;5.90;;;3.47;;
15153;SDS011;7677;41.896;25.004;2022-12-20T18:49:51;7.00;;;3.93;;
15153;SDS011;7677;41.896;25.004;2022-12-20T18:52:18;5.63;;;4.07;;
15153;SDS011;7677;41.896;25.004;2022-12-20T18:54:45;3.53;;;3.20;;
15153;SDS011;7677;41.896;25.004;2022-12-20T18:57:13;9.23;;;4.30;;
15153;SDS011;7677;41.896;25.004;2022-12-20T18:59:40;9.73;;;6.03;;
15153;SDS011;7677;41.896;25.004;2022-12-20T19:02:09;13.10;;;5.90;;
15153;SDS011;7677;41.896;25.004;2022-12-20T19:04:38;6.17;;;4.03;;
15153;SDS011;7677;41.896;25.004;2022-12-20T19:07:06;4.67;;;4.23;;
15153;SDS011;7677;41.896;25.004;2022-12-20T19:09:35;11.07;;;5.33;;
15153;SDS011;7677;41.896;25.004;2022-12-20T19:12:02;4.67;;;3.40;;
15153;SDS011;7677;41.896;25.004;2022-12-20T19:14:30;6.13;;;4.43;;
15153;SDS011;7677;41.896;25.004;2022-12-20T19:16:58;4.27;;;3.23;;
15153;SDS011;7677;41.896;25.004;2022-12-20T19:19:27;5.30;;;3.77;;
15153;SDS011;7677;41.896;25.004;2022-12-20T19:21:54;7.70;;;4.63;;
15153;SDS011;7677;41.896;25.004;2022-12-20T19:24:22;3.90;;;3.60;;
15153;SDS011;7677;41.896;25.004;2022-12-20T19:26:49;7.97;;;3.63;;
15153;SDS011;7677;41.896;25.004;2022-12-20T19:29:16;11.10;;;5.00;;
15153;SDS011;7677;41.896;25.004;2022-12-20T19:31:43;7.20;;;4.80;;
15153;SDS011;7677;41.896;25.004;2022-12-20T19:34:11;7.63;;;4.17;;
15153;SDS011;7677;41.896;25.004;2022-12-20T19:36:41;3.97;;;2.90;;
15153;SDS011;7677;41.896;25.004;2022-12-20T19:39:12;3.97;;;3.53;;
15153;SDS011;7677;41.896;25.004;2022-12-20T19:41:40;6.40;;;4.27;;
15153;SDS011;7677;41.896;25.004;2022-12-20T19:44:07;6.00;;;4.90;;
15153;SDS011;7677;41.896;25.004;2022-12-20T19:46:34;5.83;;;3.43;;
15153;SDS011;7677;41.896;25.004;2022-12-20T19:49:02;4.47;;;3.50;;
15153;SDS011;7677;41.896;25.004;2022-12-20T19:51:30;9.80;;;4.83;;
15153;SDS011;7677;41.896;25.004;2022-12-20T19:54:00;4.80;;;4.27;;
15153;SDS011;7677;41.896;25.004;2022-12-20T19:56:27;6.70;;;4.50;;
15153;SDS011;7677;41.896;25.004;2022-12-20T19:58:55;5.47;;;3.97;;
15153;SDS011;7677;41.896;25.004;2022-12-20T20:01:23;4.57;;;3.00;;
15153;SDS011;7677;41.896;25.004;2022-12-20T20:03:51;5.97;;;4.03;;
15153;SDS011;7677;41.896;25.004;2022-12-20T20:06:20;5.77;;;3.87;;
15153;SDS011;7677;41.896;25.004;2022-12-20T20:08:48;10.23;;;4.37;;
15153;SDS011;7677;41.896;25.004;2022-12-20T20:11:17;4.83;;;3.93;;
15153;SDS011;7677;41.896;25.004;2022-12-20T20:13:45;6.57;;;4.47;;
15153;SDS011;7677;41.896;25.004;2022-12-20T20:16:12;6.77;;;3.80;;
15153;SDS011;7677;41.896;25.004;2022-12-20T20:18:39;6.27;;;4.17;;
15153;SDS011;7677;41.896;25.004;2022-12-20T20:21:07;5.47;;;3.80;;
15153;SDS011;7677;41.896;25.004;2022-12-20T20:23:37;9.10;;;4.83;;
15153;SDS011;7677;41.896;25.004;2022-12-20T20:26:05;4.27;;;3.37;;
15153;SDS011;7677;41.896;25.004;2022-12-20T20:28:34;6.00;;;3.70;;
15153;SDS011;7677;41.896;25.004;2022-12-20T20:31:02;4.63;;;3.57;;
15153;SDS011;7677;41.896;25.004;2022-12-20T20:33:29;4.23;;;3.30;;
15153;SDS011;7677;41.896;25.004;2022-12-20T20:35:57;6.23;;;3.67;;
15153;SDS011;7677;41.896;25.004;2022-12-20T20:38:27;5.60;;;3.77;;
15153;SDS011;7677;41.896;25.004;2022-12-20T20:40:55;6.27;;;3.97;;
15153;SDS011;7677;41.896;25.004;2022-12-20T20:43:22;5.77;;;4.57;;
15153;SDS011;7677;41.896;25.004;2022-12-20T20:45:51;4.73;;;3.93;;
15153;SDS011;7677;41.896;25.004;2022-12-20T20:48:19;7.43;;;4.13;;
15153;SDS011;7677;41.896;25.004;2022-12-20T20:50:46;6.27;;;4.13;;
15153;SDS011;7677;41.896;25.004;2022-12-20T20:53:13;6.37;;;3.80;;
15153;SDS011;7677;41.896;25.004;2022-12-20T20:55:41;3.17;;;2.70;;
15153;SDS011;7677;41.896;25.004;2022-12-20T20:58:08;8.13;;;3.80;;
15153;SDS011;7677;41.896;25.004;2022-12-20T21:00:35;7.90;;;2.83;;
15153;SDS011;7677;41.896;25.004;2022-12-20T21:03:04;4.23;;;3.90;;
15153;SDS011;7677;41.896;25.004;2022-12-20T21:05:31;3.83;;;2.67;;
15153;SDS011;7677;41.896;25.004;2022-12-20T21:07:59;6.60;;;3.80;;
15153;SDS011;7677;41.896;25.004;2022-12-20T21:10:26;10.20;;;3.70;;
15153;SDS011;7677;41.896;25.004;2022-12-20T21:12:53;3.53;;;2.90;;
15153;SDS011;7677;41.896;25.004;2022-12-20T21:15:20;4.33;;;3.00;;
15153;SDS011;7677;41.896;25.004;2022-12-20T21:17:50;3.67;;;3.00;;
15153;SDS011;7677;41.896;25.004;2022-12-20T21:20:19;2.57;;;2.37;;
15153;SDS011;7677;41.896;25.004;2022-12-20T21:22:46;4.13;;;2.70;;
15153;SDS011;7677;41.896;25.004;2022-12-20T21:25:13;4.17;;;3.00;;
15153;SDS011;7677;41.896;25.004;2022-12-20T21:27:41;4.43;;;3.57;;
15153;SDS011;7677;41.896;25.004;2022-12-20T21:30:09;6.60;;;3.20;;
15153;SDS011;7677;41.896;25.004;2022-12-20T21:32:36;4.93;;;2.80;;
15153;SDS011;7677;41.896;25.004;2022-12-20T21:35:04;3.90;;;3.07;;
15153;SDS011;7677;41.896;25.004;2022-12-20T21:37:33;4.57;;;3.67;;
15153;SDS011;7677;41.896;25.004;2022-12-20T21:40:01;6.77;;;2.97;;
15153;SDS011;7677;41.896;25.004;2022-12-20T21:42:28;4.03;;;3.47;;
15153;SDS011;7677;41.896;25.004;2022-12-20T21:44:57;3.97;;;3.57;;
15153;SDS011;7677;41.896;25.004;2022-12-20T21:47:24;8.87;;;4.13;;
15153;SDS011;7677;41.896;25.004;2022-12-20T21:49:51;4.50;;;2.70;;
15153;SDS011;7677;41.896;25.004;2022-12-20T21:52:18;4.13;;;2.53;;
15153;SDS011;7677;41.896;25.004;2022-12-20T21:54:47;7.27;;;3.70;;
15153;SDS011;7677;41.896;25.004;2022-12-20T21:57:15;3.07;;;2.30;;
15153;SDS011;7677;41.896;25.004;2022-12-20T21:59:42;3.83;;;3.03;;
15153;SDS011;7677;41.896;25.004;2022-12-20T22:02:09;4.00;;;2.97;;
15153;SDS011;7677;41.896;25.004;2022-12-20T22:04:38;3.73;;;2.70;;
15153;SDS011;7677;41.896;25.004;2022-12-20T22:07:05;3.30;;;3.00;;
15153;SDS011;7677;41.896;25.004;2022-12-20T22:09:33;3.20;;;2.87;;
15153;SDS011;7677;41.896;25.004;2022-12-20T22:12:01;4.80;;;4.30;;
15153;SDS011;7677;41.896;25.004;2022-12-20T22:14:29;8.53;;;4.77;;
15153;SDS011;7677;41.896;25.004;2022-12-20T22:16:56;9.03;;;5.50;;
15153;SDS011;7677;41.896;25.004;2022-12-20T22:19:24;6.83;;;4.50;;
15153;SDS011;7677;41.896;25.004;2022-12-20T22:22:02;4.37;;;3.93;;